Terminal Aerodrome Forecast
Issued by NWS

Home | Current Version | Previous Version | Text Only | Print | Product List | Glossary On
Versions: 1 2 3 4 5 6 7 8 9 10 11 12
431
FTUS45 KABQ 160534
TAFFMN
TAF
KFMN 160534Z 1606/1706 08005KT P6SM FEW250
     FM161600 12006KT P6SM BKN200
     FM162000 27006KT P6SM SCT120 BKN180
     FM170400 VRB04KT P6SM BKN180=

USA.gov is the U.S. government's official web portal to all federal, state and local government web resources and services.